Time;durP1;ratioP1;P1;durP2;ratioP2;P2;SDS_P1;SDS_P2;PMS_P1;PMS_P2;Temp;Humidity;BMP_temperature;BMP_pressure;BME280_temperature;BME280_humidity;BME280_pressure;Samples;Min_cycle;Max_cycle;Signal;HPM_P1;HPM_P2
2022/04/03 00:00:41;;;;;;;3.40;2.80;;;;;;;;;;5073343;28;24453;-52
2022/04/03 00:03:08;;;;;;;3.20;2.90;;;;;;;;;;5074631;28;24876;-52
2022/04/03 00:05:37;;;;;;;3.80;2.70;;;;;;;;;;5074109;28;24425;-51
2022/04/03 00:08:02;;;;;;;3.03;2.60;;;;;;;;;;5072358;28;24414;-53
2022/04/03 00:10:27;;;;;;;2.60;2.40;;;;;;;;;;5085228;28;24505;-52
2022/04/03 00:12:53;;;;;;;2.92;2.63;;;;;;;;;;5075278;28;24517;-52
2022/04/03 00:15:18;;;;;;;2.67;2.40;;;;;;;;;;5079689;28;24448;-52
2022/04/03 00:17:43;;;;;;;3.63;3.03;;;;;;;;;;5069407;28;24456;-52
2022/04/03 00:20:09;;;;;;;3.00;2.70;;;;;;;;;;5079814;28;25422;-52
2022/04/03 00:22:34;;;;;;;4.17;3.30;;;;;;;;;;5069972;28;24407;-51
2022/04/03 00:24:59;;;;;;;3.47;2.90;;;;;;;;;;5073465;28;24483;-52
2022/04/03 00:27:25;;;;;;;2.97;2.67;;;;;;;;;;5075495;28;24417;-52
2022/04/03 00:29:50;;;;;;;2.70;2.50;;;;;;;;;;5074464;28;24414;-52
2022/04/03 00:32:15;;;;;;;3.10;2.40;;;;;;;;;;5074145;28;24480;-52
2022/04/03 00:34:40;;;;;;;3.60;2.67;;;;;;;;;;5076320;28;24835;-52
2022/04/03 00:37:05;;;;;;;2.93;2.70;;;;;;;;;;5074737;28;24418;-52
2022/04/03 00:39:59;;;;;;;3.65;2.45;;;;;;;;;;5066285;28;24438;-53
2022/04/03 00:42:25;;;;;;;3.42;2.90;;;;;;;;;;5066442;28;24476;-51
2022/04/03 00:44:50;;;;;;;3.00;2.70;;;;;;;;;;5071031;28;24480;-52
2022/04/03 00:47:16;;;;;;;2.90;2.70;;;;;;;;;;5083159;28;24430;-52
2022/04/03 00:49:42;;;;;;;3.50;2.40;;;;;;;;;;5074959;28;24971;-51
2022/04/03 00:52:08;;;;;;;3.07;2.50;;;;;;;;;;5084815;28;24426;-52
2022/04/03 00:54:33;;;;;;;3.53;2.90;;;;;;;;;;5073200;28;24461;-53
2022/04/03 00:56:58;;;;;;;3.23;2.70;;;;;;;;;;5077742;28;24480;-52
2022/04/03 00:59:23;;;;;;;3.10;2.80;;;;;;;;;;5079691;28;25011;-52
2022/04/03 01:01:49;;;;;;;3.40;2.67;;;;;;;;;;5069147;28;24948;-52
2022/04/03 01:04:14;;;;;;;2.27;2.17;;;;;;;;;;5082196;28;24801;-52
2022/04/03 01:06:39;;;;;;;2.70;2.50;;;;;;;;;;5081724;28;24410;-52
2022/04/03 01:09:04;;;;;;;3.23;2.60;;;;;;;;;;5077581;28;24517;-52
2022/04/03 01:11:30;;;;;;;3.47;2.78;;;;;;;;;;5075932;28;24511;-52
2022/04/03 01:13:55;;;;;;;2.80;2.50;;;;;;;;;;5072830;28;24430;-52
2022/04/03 01:16:21;;;;;;;3.37;2.47;;;;;;;;;;5080198;28;24967;-51
2022/04/03 01:18:46;;;;;;;2.78;2.50;;;;;;;;;;5084723;28;25122;-52
2022/04/03 01:21:11;;;;;;;3.37;2.60;;;;;;;;;;5069397;28;24422;-51
2022/04/03 01:23:37;;;;;;;3.10;2.70;;;;;;;;;;5067482;28;24415;-52
2022/04/03 01:26:21;;;;;;;4.18;2.70;;;;;;;;;;5071484;28;24414;-52
2022/04/03 01:28:46;;;;;;;2.30;2.10;;;;;;;;;;5076390;28;24980;-52
2022/04/03 01:31:11;;;;;;;3.03;2.35;;;;;;;;;;5075051;28;24437;-52
2022/04/03 01:33:37;;;;;;;2.40;2.20;;;;;;;;;;5081567;28;24410;-53
2022/04/03 01:36:02;;;;;;;2.70;2.40;;;;;;;;;;5072013;28;24519;-52
2022/04/03 01:38:28;;;;;;;2.80;2.37;;;;;;;;;;5067625;28;25013;-53
2022/04/03 01:40:53;;;;;;;4.70;2.57;;;;;;;;;;5067861;28;24437;-52
2022/04/03 01:43:18;;;;;;;2.40;2.20;;;;;;;;;;5068007;28;24426;-52
2022/04/03 01:45:43;;;;;;;4.20;2.60;;;;;;;;;;5074421;28;24500;-52
2022/04/03 01:48:09;;;;;;;2.83;2.63;;;;;;;;;;5079318;28;24415;-52
2022/04/03 01:50:34;;;;;;;2.50;2.30;;;;;;;;;;5081037;28;25070;-52
2022/04/03 01:53:00;;;;;;;3.07;2.20;;;;;;;;;;5067416;28;24770;-52
2022/04/03 01:55:25;;;;;;;2.40;2.20;;;;;;;;;;5078192;28;24414;-52
2022/04/03 01:57:51;;;;;;;2.55;2.35;;;;;;;;;;5075828;28;24505;-53
2022/04/03 02:00:16;;;;;;;2.80;2.20;;;;;;;;;;5080972;28;24435;-52
2022/04/03 02:02:41;;;;;;;2.90;2.40;;;;;;;;;;5070702;28;25028;-51
2022/04/03 02:05:07;;;;;;;3.23;2.30;;;;;;;;;;5068127;28;24467;-51
2022/04/03 02:07:33;;;;;;;2.93;2.47;;;;;;;;;;5075712;28;24490;-52
2022/04/03 02:09:58;;;;;;;3.03;2.65;;;;;;;;;;5079219;28;24661;-51
2022/04/03 02:12:24;;;;;;;2.70;2.50;;;;;;;;;;5069478;28;24453;-53
2022/04/03 02:14:50;;;;;;;2.40;2.20;;;;;;;;;;5071062;28;24418;-52
2022/04/03 02:17:15;;;;;;;2.42;2.22;;;;;;;;;;5079596;28;25343;-52
2022/04/03 02:19:40;;;;;;;3.23;2.60;;;;;;;;;;5069254;28;24488;-51
2022/04/03 02:22:05;;;;;;;2.63;2.42;;;;;;;;;;5071452;28;24410;-51
2022/04/03 02:24:30;;;;;;;3.00;2.70;;;;;;;;;;5082726;28;24410;-51
2022/04/03 02:26:56;;;;;;;2.53;2.33;;;;;;;;;;5077817;28;24951;-52
2022/04/03 02:29:21;;;;;;;2.60;2.40;;;;;;;;;;5074244;28;24442;-52
2022/04/03 02:31:46;;;;;;;2.60;2.40;;;;;;;;;;5077413;28;24422;-52
2022/04/03 02:34:11;;;;;;;2.28;2.10;;;;;;;;;;5071604;28;25197;-52
2022/04/03 02:36:40;;;;;;;2.30;2.10;;;;;;;;;;5082919;28;24982;-51
2022/04/03 02:39:06;;;;;;;2.20;2.10;;;;;;;;;;5076507;28;24975;-51
2022/04/03 02:41:31;;;;;;;2.97;2.30;;;;;;;;;;5073603;28;24414;-52
2022/04/03 02:43:57;;;;;;;2.50;2.30;;;;;;;;;;5078333;28;24441;-52
2022/04/03 02:46:22;;;;;;;2.50;2.30;;;;;;;;;;5076510;28;25045;-51
2022/04/03 02:48:47;;;;;;;2.73;2.20;;;;;;;;;;5071594;28;24491;-51
2022/04/03 02:51:12;;;;;;;2.35;2.15;;;;;;;;;;5070873;28;24477;-52
2022/04/03 02:53:38;;;;;;;2.83;2.35;;;;;;;;;;5073015;28;24438;-52
2022/04/03 02:56:03;;;;;;;2.00;1.90;;;;;;;;;;5083659;28;24587;-52
2022/04/03 02:58:28;;;;;;;2.30;2.20;;;;;;;;;;5079177;28;24426;-52
2022/04/03 03:00:53;;;;;;;2.87;2.50;;;;;;;;;;5073802;28;24511;-51
2022/04/03 03:03:18;;;;;;;2.60;2.40;;;;;;;;;;5075401;28;24421;-51
2022/04/03 03:05:45;;;;;;;2.30;2.10;;;;;;;;;;5085726;28;24510;-52
2022/04/03 03:08:10;;;;;;;2.40;2.20;;;;;;;;;;5077624;28;24410;-53
2022/04/03 03:10:35;;;;;;;2.90;2.47;;;;;;;;;;5073310;28;24433;-52
2022/04/03 03:13:00;;;;;;;4.00;2.30;;;;;;;;;;5080455;28;24491;-53
2022/04/03 03:15:25;;;;;;;2.80;2.60;;;;;;;;;;5069861;28;24423;-52
2022/04/03 03:17:51;;;;;;;2.58;2.38;;;;;;;;;;5070021;28;24980;-53
2022/04/03 03:20:16;;;;;;;3.63;2.50;;;;;;;;;;5080363;28;24855;-52
2022/04/03 03:22:41;;;;;;;2.58;2.38;;;;;;;;;;5079200;28;24546;-52
2022/04/03 03:25:07;;;;;;;2.57;2.37;;;;;;;;;;5071119;28;24518;-52
2022/04/03 03:27:33;;;;;;;2.60;2.23;;;;;;;;;;5074212;28;25120;-51
2022/04/03 03:29:58;;;;;;;3.60;2.50;;;;;;;;;;5080604;28;24780;-52
2022/04/03 03:32:25;;;;;;;2.97;2.60;;;;;;;;;;5073691;28;21286;-53
2022/04/03 03:34:51;;;;;;;2.45;2.30;;;;;;;;;;5082431;28;24437;-52
2022/04/03 03:37:16;;;;;;;2.50;2.30;;;;;;;;;;5071379;28;24508;-52
2022/04/03 03:39:41;;;;;;;2.40;2.30;;;;;;;;;;5079292;28;24430;-52
2022/04/03 03:42:06;;;;;;;2.60;2.40;;;;;;;;;;5081200;28;25031;-53
2022/04/03 03:44:32;;;;;;;2.40;2.27;;;;;;;;;;5071954;28;24406;-52
2022/04/03 03:46:57;;;;;;;3.03;2.33;;;;;;;;;;5076733;28;24422;-53
2022/04/03 03:49:23;;;;;;;2.40;2.30;;;;;;;;;;5065598;28;24773;-52
2022/04/03 03:51:48;;;;;;;2.60;2.40;;;;;;;;;;5076045;28;24968;-52
2022/04/03 03:54:13;;;;;;;3.10;2.80;;;;;;;;;;5076594;28;24444;-52
2022/04/03 03:56:38;;;;;;;2.55;2.30;;;;;;;;;;5072210;28;24785;-53
2022/04/03 03:59:05;;;;;;;2.60;2.40;;;;;;;;;;5068797;28;24446;-53
2022/04/03 04:01:30;;;;;;;2.47;2.28;;;;;;;;;;5076886;28;24426;-53
2022/04/03 04:03:55;;;;;;;2.50;2.30;;;;;;;;;;5071938;28;24468;-53
2022/04/03 04:06:21;;;;;;;2.92;2.55;;;;;;;;;;5077408;28;24415;-53
2022/04/03 04:08:46;;;;;;;2.70;2.30;;;;;;;;;;5075437;28;24419;-53
2022/04/03 04:11:11;;;;;;;3.00;2.80;;;;;;;;;;5075865;28;24425;-53
2022/04/03 04:13:36;;;;;;;3.97;2.30;;;;;;;;;;5077247;28;24410;-53
2022/04/03 04:16:01;;;;;;;2.58;2.38;;;;;;;;;;5077354;28;24777;-51
2022/04/03 04:18:27;;;;;;;3.20;2.60;;;;;;;;;;5075666;28;24414;-51
2022/04/03 04:20:53;;;;;;;3.13;2.30;;;;;;;;;;5067646;28;24491;-52
2022/04/03 04:23:21;;;;;;;3.47;2.53;;;;;;;;;;5077938;28;24454;-52
2022/04/03 04:25:46;;;;;;;2.55;2.45;;;;;;;;;;5079440;28;24418;-52
2022/04/03 04:28:12;;;;;;;4.00;2.80;;;;;;;;;;5080128;28;24441;-52
2022/04/03 04:30:37;;;;;;;3.20;2.90;;;;;;;;;;5079757;28;24442;-53
2022/04/03 04:33:02;;;;;;;2.80;2.60;;;;;;;;;;5072276;28;24429;-53
2022/04/03 04:35:27;;;;;;;3.10;2.80;;;;;;;;;;5073575;28;24430;-53
2022/04/03 04:37:52;;;;;;;3.50;2.90;;;;;;;;;;5069575;28;24423;-52
2022/04/03 04:40:17;;;;;;;4.03;2.57;;;;;;;;;;5073082;28;25126;-53
2022/04/03 04:42:43;;;;;;;4.40;2.83;;;;;;;;;;5069938;28;24509;-53
2022/04/03 04:45:09;;;;;;;3.20;3.00;;;;;;;;;;5082874;28;24904;-53
2022/04/03 04:47:35;;;;;;;3.05;2.85;;;;;;;;;;5076932;28;24405;-52
2022/04/03 04:50:00;;;;;;;3.77;3.23;;;;;;;;;;5067226;28;24952;-52
2022/04/03 04:52:25;;;;;;;2.77;2.57;;;;;;;;;;5077235;28;24410;-52
2022/04/03 04:54:50;;;;;;;3.00;2.80;;;;;;;;;;5071595;28;24421;-52
2022/04/03 04:57:15;;;;;;;2.80;2.60;;;;;;;;;;5073854;28;24508;-52
2022/04/03 04:59:41;;;;;;;3.00;2.80;;;;;;;;;;5082653;28;24521;-53
2022/04/03 05:02:06;;;;;;;3.20;2.50;;;;;;;;;;5081155;28;24426;-53
2022/04/03 05:04:32;;;;;;;3.42;3.13;;;;;;;;;;5070609;28;24410;-53
2022/04/03 05:06:57;;;;;;;2.90;2.60;;;;;;;;;;5080469;28;24407;-53
2022/04/03 05:09:22;;;;;;;3.00;2.70;;;;;;;;;;5066410;28;24975;-52
2022/04/03 05:11:48;;;;;;;2.90;2.70;;;;;;;;;;5079878;28;25235;-51
2022/04/03 05:14:13;;;;;;;3.10;2.80;;;;;;;;;;5070083;28;24415;-51
2022/04/03 05:16:39;;;;;;;3.83;2.70;;;;;;;;;;5068835;28;25182;-51
2022/04/03 05:19:04;;;;;;;3.50;3.20;;;;;;;;;;5075382;28;24538;-52
2022/04/03 05:21:29;;;;;;;4.03;2.65;;;;;;;;;;5075648;28;24433;-52
2022/04/03 05:23:54;;;;;;;3.55;3.28;;;;;;;;;;5072916;28;24509;-52
2022/04/03 05:26:19;;;;;;;3.30;3.00;;;;;;;;;;5067312;28;24464;-52
2022/04/03 05:28:44;;;;;;;4.85;3.20;;;;;;;;;;5072034;28;24437;-52
2022/04/03 05:31:09;;;;;;;3.20;3.00;;;;;;;;;;5076047;28;24445;-52
2022/04/03 05:33:35;;;;;;;4.90;3.73;;;;;;;;;;5072503;28;24422;-52
2022/04/03 05:36:00;;;;;;;3.50;3.20;;;;;;;;;;5080007;28;24422;-52
2022/04/03 05:38:26;;;;;;;3.80;3.50;;;;;;;;;;5082872;28;24468;-52
2022/04/03 05:40:51;;;;;;;3.70;3.30;;;;;;;;;;5076969;28;24434;-52
2022/04/03 05:43:16;;;;;;;4.43;3.00;;;;;;;;;;5081702;28;24403;-52
2022/04/03 05:45:42;;;;;;;5.47;3.53;;;;;;;;;;5077600;28;24438;-52
2022/04/03 05:48:07;;;;;;;4.40;3.20;;;;;;;;;;5080664;28;24467;-52
2022/04/03 05:50:33;;;;;;;4.47;3.30;;;;;;;;;;5072722;28;24894;-52
2022/04/03 05:52:58;;;;;;;3.63;3.17;;;;;;;;;;5081562;28;24440;-52
2022/04/03 05:55:23;;;;;;;3.33;3.00;;;;;;;;;;5074073;28;24433;-51
2022/04/03 05:57:50;;;;;;;3.70;3.30;;;;;;;;;;5069537;28;24427;-52
2022/04/03 06:00:16;;;;;;;3.53;3.22;;;;;;;;;;5071152;28;24433;-53
2022/04/03 06:02:41;;;;;;;3.72;3.42;;;;;;;;;;5074059;28;24464;-51
2022/04/03 06:05:07;;;;;;;3.83;3.50;;;;;;;;;;5071890;28;24832;-52
2022/04/03 06:07:32;;;;;;;4.00;3.70;;;;;;;;;;5075676;28;24483;-52
2022/04/03 06:09:57;;;;;;;3.97;3.58;;;;;;;;;;5066353;28;25090;-52
2022/04/03 06:12:22;;;;;;;3.60;3.27;;;;;;;;;;5069692;28;24421;-52
2022/04/03 06:14:48;;;;;;;3.67;3.03;;;;;;;;;;5071021;28;24410;-52
2022/04/03 06:17:13;;;;;;;3.90;3.50;;;;;;;;;;5074904;28;24438;-52
2022/04/03 06:19:38;;;;;;;3.00;2.80;;;;;;;;;;5071684;28;24437;-52
2022/04/03 06:22:03;;;;;;;4.20;3.63;;;;;;;;;;5068091;28;24422;-52
2022/04/03 06:24:28;;;;;;;3.80;3.50;;;;;;;;;;5076365;28;24963;-51
2022/04/03 06:26:53;;;;;;;3.60;3.30;;;;;;;;;;5077799;28;24413;-52
2022/04/03 06:29:19;;;;;;;3.90;3.58;;;;;;;;;;5076932;28;25002;-51
2022/04/03 06:31:44;;;;;;;3.40;3.10;;;;;;;;;;5086504;28;24928;-52
2022/04/03 06:34:09;;;;;;;3.50;3.30;;;;;;;;;;5086879;28;24411;-52
2022/04/03 06:36:35;;;;;;;4.20;3.43;;;;;;;;;;5077788;28;24471;-53
2022/04/03 06:39:00;;;;;;;3.70;3.40;;;;;;;;;;5077287;28;24961;-52
2022/04/03 06:41:25;;;;;;;4.45;4.05;;;;;;;;;;5070849;28;24418;-52
2022/04/03 06:43:50;;;;;;;3.67;3.37;;;;;;;;;;5071202;28;24433;-53
2022/04/03 06:46:15;;;;;;;4.20;3.80;;;;;;;;;;5080237;28;24407;-54
2022/04/03 06:48:41;;;;;;;4.60;3.58;;;;;;;;;;5079956;28;24422;-52
2022/04/03 06:51:06;;;;;;;4.20;3.60;;;;;;;;;;5078604;28;24421;-52
2022/04/03 06:53:31;;;;;;;3.90;3.60;;;;;;;;;;5068734;28;24501;-53
2022/04/03 06:55:57;;;;;;;3.88;3.58;;;;;;;;;;5078669;28;24514;-52
2022/04/03 06:58:23;;;;;;;3.60;3.30;;;;;;;;;;5078421;28;24410;-52
2022/04/03 07:00:48;;;;;;;4.50;3.40;;;;;;;;;;5085980;28;24421;-53
2022/04/03 07:03:13;;;;;;;4.27;3.87;;;;;;;;;;5080078;28;24407;-53
2022/04/03 07:05:38;;;;;;;3.77;3.47;;;;;;;;;;5066485;28;24414;-52
2022/04/03 07:08:04;;;;;;;4.00;3.60;;;;;;;;;;5068858;28;24762;-53
2022/04/03 07:10:29;;;;;;;3.90;3.50;;;;;;;;;;5070002;28;24881;-53
2022/04/03 07:12:55;;;;;;;3.80;3.50;;;;;;;;;;5081611;28;24999;-52
2022/04/03 07:15:20;;;;;;;3.58;3.17;;;;;;;;;;5070017;28;24550;-52
2022/04/03 07:17:45;;;;;;;4.80;3.60;;;;;;;;;;5069759;28;24985;-53
2022/04/03 07:20:13;;;;;;;4.55;3.60;;;;;;;;;;5069518;28;24415;-52
2022/04/03 07:22:38;;;;;;;3.90;3.40;;;;;;;;;;5080574;28;24544;-52
2022/04/03 07:25:03;;;;;;;3.90;3.60;;;;;;;;;;5072760;28;24568;-53
2022/04/03 07:27:29;;;;;;;3.93;3.50;;;;;;;;;;5069134;28;24422;-52
2022/04/03 07:29:54;;;;;;;3.90;3.43;;;;;;;;;;5069587;28;24493;-52
2022/04/03 07:32:19;;;;;;;4.00;3.60;;;;;;;;;;5076975;28;24463;-52
2022/04/03 07:34:44;;;;;;;3.45;3.25;;;;;;;;;;5079180;28;24438;-52
2022/04/03 07:37:09;;;;;;;3.75;3.30;;;;;;;;;;5076188;28;24721;-52
2022/04/03 07:39:34;;;;;;;3.93;3.50;;;;;;;;;;5088789;28;24425;-53
2022/04/03 07:42:00;;;;;;;4.50;3.30;;;;;;;;;;5087839;28;24414;-51
2022/04/03 07:44:25;;;;;;;4.60;3.33;;;;;;;;;;5086711;28;24406;-52
2022/04/03 07:46:50;;;;;;;3.77;3.30;;;;;;;;;;5089774;28;24411;-51
2022/04/03 07:49:15;;;;;;;3.43;3.13;;;;;;;;;;5087246;28;24425;-52
2022/04/03 07:51:40;;;;;;;3.33;3.00;;;;;;;;;;5089084;28;24418;-53
2022/04/03 07:54:05;;;;;;;5.10;3.33;;;;;;;;;;5088416;28;24787;-53
2022/04/03 07:56:31;;;;;;;4.50;3.60;;;;;;;;;;5070504;28;24441;-55
2022/04/03 07:58:57;;;;;;;3.80;3.20;;;;;;;;;;5083403;28;25019;-56
2022/04/03 08:01:22;;;;;;;3.50;3.20;;;;;;;;;;5069346;28;24415;-55
2022/04/03 08:03:50;;;;;;;4.40;3.60;;;;;;;;;;5082133;28;24472;-56
2022/04/03 08:06:15;;;;;;;4.38;3.20;;;;;;;;;;5068747;28;24454;-56
2022/04/03 08:08:41;;;;;;;3.53;3.10;;;;;;;;;;5067562;28;24842;-56
2022/04/03 08:11:07;;;;;;;4.35;3.25;;;;;;;;;;5077950;28;24461;-56
2022/04/03 08:13:32;;;;;;;4.03;3.20;;;;;;;;;;5085917;28;24987;-56
2022/04/03 08:15:57;;;;;;;3.72;2.90;;;;;;;;;;5078730;28;24417;-53
2022/04/03 08:18:23;;;;;;;5.10;4.60;;;;;;;;;;5074537;28;24956;-53
2022/04/03 08:20:48;;;;;;;3.80;3.37;;;;;;;;;;5078844;28;24461;-53
2022/04/03 08:23:13;;;;;;;5.90;5.10;;;;;;;;;;5068279;28;24414;-54
2022/04/03 08:25:39;;;;;;;3.30;3.00;;;;;;;;;;5067268;28;24838;-53
2022/04/03 08:28:05;;;;;;;3.60;3.30;;;;;;;;;;5067988;28;24442;-53
2022/04/03 08:30:31;;;;;;;3.83;3.50;;;;;;;;;;5070345;28;24506;-53
2022/04/03 08:32:56;;;;;;;3.00;2.80;;;;;;;;;;5071617;28;24428;-52
2022/04/03 08:35:24;;;;;;;6.53;5.70;;;;;;;;;;5066717;28;24423;-52
2022/04/03 08:37:50;;;;;;;6.27;5.33;;;;;;;;;;5078187;28;24792;-51
2022/04/03 08:40:15;;;;;;;3.75;2.80;;;;;;;;;;5098817;28;24430;-52
2022/04/03 08:42:40;;;;;;;3.53;2.90;;;;;;;;;;5084453;28;24425;-52
2022/04/03 08:45:11;;;;;;;5.33;4.60;;;;;;;;;;5068939;28;24491;-53
2022/04/03 08:47:42;;;;;;;15.45;11.50;;;;;;;;;;5067563;28;24426;-53
2022/04/03 08:50:07;;;;;;;17.85;13.32;;;;;;;;;;5084959;28;24436;-53
2022/04/03 08:52:33;;;;;;;2.97;2.67;;;;;;;;;;5074755;28;24429;-53
2022/04/03 08:54:59;;;;;;;2.50;2.00;;;;;;;;;;5079192;28;24513;-53
2022/04/03 08:57:24;;;;;;;4.47;3.53;;;;;;;;;;5084357;28;24503;-53
2022/04/03 08:59:50;;;;;;;4.33;2.70;;;;;;;;;;5080285;28;24495;-53
2022/04/03 09:02:15;;;;;;;2.30;2.10;;;;;;;;;;5080069;28;24649;-53
2022/04/03 09:04:40;;;;;;;2.47;1.87;;;;;;;;;;5084105;28;24469;-53
2022/04/03 09:07:06;;;;;;;2.87;1.70;;;;;;;;;;5081900;28;24406;-53
2022/04/03 09:09:31;;;;;;;2.00;1.90;;;;;;;;;;5076956;28;25203;-53
2022/04/03 09:12:06;;;;;;;2.80;2.00;;;;;;;;;;5082430;28;24430;-53
2022/04/03 09:14:31;;;;;;;2.10;1.90;;;;;;;;;;5081312;28;26030;-53
2022/04/03 09:16:57;;;;;;;2.30;2.10;;;;;;;;;;5082845;28;25035;-53
2022/04/03 09:19:30;;;;;;;2.65;2.28;;;;;;;;;;5076546;28;24435;-53
2022/04/03 09:21:55;;;;;;;2.83;2.63;;;;;;;;;;5082440;28;24974;-53
2022/04/03 09:24:21;;;;;;;2.53;2.33;;;;;;;;;;5079405;28;24587;-53
2022/04/03 09:26:56;;;;;;;2.37;2.10;;;;;;;;;;5082183;28;24782;-54
2022/04/03 09:29:21;;;;;;;2.30;2.10;;;;;;;;;;5081523;28;24592;-53
2022/04/03 09:31:46;;;;;;;2.03;1.92;;;;;;;;;;5079524;28;24513;-54
2022/04/03 09:34:18;;;;;;;3.00;2.10;;;;;;;;;;5074407;28;24413;-54
2022/04/03 09:36:54;;;;;;;1.90;1.80;;;;;;;;;;5082213;28;24410;-52
2022/04/03 09:39:24;;;;;;;2.50;2.30;;;;;;;;;;5082851;28;24446;-51
2022/04/03 09:41:56;;;;;;;2.20;2.00;;;;;;;;;;5067034;28;24958;-55
2022/04/03 09:44:28;;;;;;;2.50;2.30;;;;;;;;;;5085697;28;24769;-52
2022/04/03 09:47:12;;;;;;;2.50;2.30;;;;;;;;;;5068869;28;24425;-51
2022/04/03 09:49:37;;;;;;;2.40;2.20;;;;;;;;;;5066106;28;24516;-52
2022/04/03 09:52:03;;;;;;;2.30;2.10;;;;;;;;;;5066484;28;24605;-53
2022/04/03 09:54:28;;;;;;;2.75;2.10;;;;;;;;;;5082106;28;25102;-53
2022/04/03 09:56:53;;;;;;;3.50;2.40;;;;;;;;;;5066212;28;24434;-53
2022/04/03 09:59:18;;;;;;;3.10;2.30;;;;;;;;;;5073189;28;25153;-53
2022/04/03 10:01:44;;;;;;;2.47;2.27;;;;;;;;;;5072573;28;24430;-52
2022/04/03 10:04:10;;;;;;;2.72;2.30;;;;;;;;;;5071721;28;24528;-53
2022/04/03 10:06:38;;;;;;;2.60;2.40;;;;;;;;;;5079301;28;24415;-54
2022/04/03 10:09:03;;;;;;;2.20;2.10;;;;;;;;;;5072818;28;24426;-52
2022/04/03 10:11:29;;;;;;;3.00;2.70;;;;;;;;;;5074914;28;24796;-53
2022/04/03 10:13:55;;;;;;;2.40;2.20;;;;;;;;;;5081413;28;24940;-54
2022/04/03 10:16:20;;;;;;;2.70;2.10;;;;;;;;;;5079786;28;24447;-52
2022/04/03 10:18:47;;;;;;;2.30;2.10;;;;;;;;;;5079129;28;24502;-53
2022/04/03 10:21:24;;;;;;;2.40;1.92;;;;;;;;;;5068540;28;24507;-53
2022/04/03 10:23:52;;;;;;;2.08;1.88;;;;;;;;;;5072147;28;24415;-52
2022/04/03 10:26:18;;;;;;;2.30;2.10;;;;;;;;;;5074137;28;24549;-52
2022/04/03 10:28:49;;;;;;;2.70;2.30;;;;;;;;;;5080887;28;24443;-52
2022/04/03 10:31:15;;;;;;;2.20;2.00;;;;;;;;;;5081014;28;24421;-52
2022/04/03 10:33:41;;;;;;;2.43;2.23;;;;;;;;;;5076559;28;24591;-53
2022/04/03 10:36:08;;;;;;;1.98;1.80;;;;;;;;;;5071947;28;24512;-52
2022/04/03 10:38:37;;;;;;;2.20;2.00;;;;;;;;;;5076733;28;24473;-53
2022/04/03 10:41:03;;;;;;;2.85;2.53;;;;;;;;;;5071019;28;24969;-52
2022/04/03 10:43:29;;;;;;;2.40;2.20;;;;;;;;;;5072081;28;25362;-52
2022/04/03 10:45:54;;;;;;;3.95;3.10;;;;;;;;;;5081765;28;24765;-53
2022/04/03 10:48:20;;;;;;;3.40;2.40;;;;;;;;;;5088203;28;24442;-53
2022/04/03 10:50:59;;;;;;;2.83;2.20;;;;;;;;;;5077335;28;24426;-53
2022/04/03 10:53:25;;;;;;;3.50;3.20;;;;;;;;;;5069917;28;24514;-52
2022/04/03 10:55:55;;;;;;;2.28;2.08;;;;;;;;;;5077051;28;24555;-52
2022/04/03 10:58:20;;;;;;;2.47;2.22;;;;;;;;;;5080939;28;24519;-52
2022/04/03 11:00:46;;;;;;;2.60;2.40;;;;;;;;;;5078189;28;24635;-53
2022/04/03 11:03:14;;;;;;;2.53;2.30;;;;;;;;;;5071771;28;24991;-52
2022/04/03 11:05:39;;;;;;;4.47;2.33;;;;;;;;;;5073089;28;24532;-52
2022/04/03 11:08:04;;;;;;;2.30;2.10;;;;;;;;;;5080486;28;24510;-54
2022/04/03 11:10:54;;;;;;;3.00;2.30;;;;;;;;;;5082070;28;24449;-52
2022/04/03 11:13:31;;;;;;;2.90;2.70;;;;;;;;;;5075732;28;24457;-53
2022/04/03 11:15:59;;;;;;;3.47;2.40;;;;;;;;;;5069803;28;24421;-52
2022/04/03 11:18:28;;;;;;;2.60;2.20;;;;;;;;;;5083261;28;24426;-53
2022/04/03 11:21:05;;;;;;;2.65;2.45;;;;;;;;;;5087620;28;24487;-52
2022/04/03 11:23:30;;;;;;;2.83;2.42;;;;;;;;;;5086334;28;24445;-52
2022/04/03 11:25:56;;;;;;;2.87;2.57;;;;;;;;;;5082055;28;24944;-52
2022/04/03 11:28:21;;;;;;;2.60;2.40;;;;;;;;;;5075817;28;24500;-54
2022/04/03 11:30:46;;;;;;;2.47;2.27;;;;;;;;;;5074237;28;24414;-53
2022/04/03 11:33:12;;;;;;;2.70;2.40;;;;;;;;;;5074132;28;25055;-52
2022/04/03 11:35:40;;;;;;;2.45;2.25;;;;;;;;;;5075561;28;24568;-53
2022/04/03 11:38:05;;;;;;;2.60;2.40;;;;;;;;;;5078515;28;24984;-53
2022/04/03 11:40:32;;;;;;;2.60;2.40;;;;;;;;;;5066936;28;24452;-53
2022/04/03 11:43:16;;;;;;;2.45;2.25;;;;;;;;;;5082654;28;24429;-54
2022/04/03 11:45:49;;;;;;;2.40;2.20;;;;;;;;;;5081764;28;24476;-53
2022/04/03 11:48:16;;;;;;;2.60;2.40;;;;;;;;;;5080105;28;24484;-57
2022/04/03 11:50:41;;;;;;;2.30;2.10;;;;;;;;;;5066326;28;24784;-53
2022/04/03 11:53:07;;;;;;;2.60;2.40;;;;;;;;;;5069977;28;24994;-53
2022/04/03 11:55:35;;;;;;;2.60;2.40;;;;;;;;;;5083696;28;24468;-53
2022/04/03 11:58:03;;;;;;;2.90;2.70;;;;;;;;;;5070285;28;24511;-53
2022/04/03 12:00:30;;;;;;;3.80;2.80;;;;;;;;;;5082342;28;24529;-53
2022/04/03 12:02:58;;;;;;;2.60;2.40;;;;;;;;;;5065068;28;24426;-53
2022/04/03 12:05:24;;;;;;;2.53;2.25;;;;;;;;;;5077215;28;24430;-53
2022/04/03 12:07:49;;;;;;;3.27;2.97;;;;;;;;;;5069466;28;25015;-52
2022/04/03 12:10:24;;;;;;;5.05;2.80;;;;;;;;;;5067540;28;24426;-54
2022/04/03 12:12:50;;;;;;;3.03;2.78;;;;;;;;;;5064353;28;24525;-52
2022/04/03 12:15:18;;;;;;;4.00;3.20;;;;;;;;;;5074631;28;24430;-53
2022/04/03 12:17:44;;;;;;;3.70;3.40;;;;;;;;;;5059765;28;24427;-53
2022/04/03 12:20:11;;;;;;;3.10;2.80;;;;;;;;;;5062594;28;24469;-53
2022/04/03 12:22:40;;;;;;;3.33;2.88;;;;;;;;;;5077948;28;24414;-53
2022/04/03 12:25:05;;;;;;;3.08;2.88;;;;;;;;;;5071158;28;24422;-54
2022/04/03 12:27:32;;;;;;;3.07;2.77;;;;;;;;;;5067491;28;24454;-53
2022/04/03 12:29:57;;;;;;;2.72;2.53;;;;;;;;;;5074717;28;24409;-53
2022/04/03 12:32:25;;;;;;;3.00;2.70;;;;;;;;;;5077920;28;24436;-53
2022/04/03 12:34:51;;;;;;;3.00;2.80;;;;;;;;;;5067913;28;24888;-53
2022/04/03 12:37:17;;;;;;;3.20;3.00;;;;;;;;;;5072312;28;24425;-53
2022/04/03 12:39:52;;;;;;;3.30;3.00;;;;;;;;;;5069312;28;24427;-53
2022/04/03 12:42:17;;;;;;;3.90;3.00;;;;;;;;;;5084572;28;24522;-53
2022/04/03 12:44:43;;;;;;;3.37;3.07;;;;;;;;;;5071217;28;25064;-53
2022/04/03 12:47:11;;;;;;;3.10;2.90;;;;;;;;;;5083158;28;24414;-53
2022/04/03 12:49:37;;;;;;;3.50;3.20;;;;;;;;;;5072169;28;25086;-53
2022/04/03 12:52:02;;;;;;;3.00;2.80;;;;;;;;;;5068294;28;24426;-54
2022/04/03 12:54:40;;;;;;;3.50;3.20;;;;;;;;;;5079785;28;24496;-53
2022/04/03 13:00:04;;;;;;;3.33;3.03;;;;;;;;;;5069150;28;24417;-52
2022/04/03 13:02:38;;;;;;;3.23;2.93;;;;;;;;;;5066953;28;24477;-53
2022/04/03 13:05:04;;;;;;;3.35;3.00;;;;;;;;;;5070010;28;24967;-53
2022/04/03 13:07:29;;;;;;;3.20;2.90;;;;;;;;;;5064931;28;24414;-53
2022/04/03 13:09:56;;;;;;;3.17;2.88;;;;;;;;;;5068526;28;24419;-52
2022/04/03 13:12:28;;;;;;;3.08;2.78;;;;;;;;;;5065378;28;24423;-52
2022/04/03 13:14:54;;;;;;;2.63;2.42;;;;;;;;;;5075623;28;24967;-54
2022/04/03 13:17:19;;;;;;;3.15;2.95;;;;;;;;;;5072146;28;24447;-52
2022/04/03 13:19:44;;;;;;;3.17;2.90;;;;;;;;;;5069603;28;24438;-53
2022/04/03 13:22:09;;;;;;;3.30;3.00;;;;;;;;;;5075723;28;24856;-53
2022/04/03 13:24:35;;;;;;;2.90;2.70;;;;;;;;;;5066602;28;24948;-53
2022/04/03 13:27:01;;;;;;;3.17;2.92;;;;;;;;;;5080232;28;24426;-52
2022/04/03 13:29:26;;;;;;;3.00;2.80;;;;;;;;;;5066761;28;24820;-52
2022/04/03 13:31:52;;;;;;;3.20;2.90;;;;;;;;;;5066830;28;24994;-52
2022/04/03 13:34:18;;;;;;;3.10;2.80;;;;;;;;;;5069280;28;24978;-53
2022/04/03 13:36:44;;;;;;;2.80;2.60;;;;;;;;;;5067104;28;24805;-53
2022/04/03 13:39:10;;;;;;;2.60;2.40;;;;;;;;;;5085267;28;24429;-53
2022/04/03 13:41:37;;;;;;;2.92;2.63;;;;;;;;;;5087013;28;24502;-53
2022/04/03 13:44:02;;;;;;;3.30;3.00;;;;;;;;;;5085335;28;25024;-52
2022/04/03 13:46:27;;;;;;;3.10;2.90;;;;;;;;;;5082990;28;24506;-53
2022/04/03 13:48:52;;;;;;;3.97;3.00;;;;;;;;;;5068396;28;24546;-53
2022/04/03 13:51:18;;;;;;;4.03;2.40;;;;;;;;;;5067454;28;24427;-53
2022/04/03 13:53:43;;;;;;;2.70;2.50;;;;;;;;;;5087000;28;24549;-52
2022/04/03 13:56:09;;;;;;;3.67;2.90;;;;;;;;;;5086373;28;24398;-51
2022/04/03 13:58:34;;;;;;;2.80;2.60;;;;;;;;;;5069824;28;24952;-51
2022/04/03 14:01:01;;;;;;;3.30;3.00;;;;;;;;;;5074307;28;24458;-53
2022/04/03 14:03:27;;;;;;;2.80;2.60;;;;;;;;;;5064761;28;24505;-53
2022/04/03 14:05:52;;;;;;;2.60;2.40;;;;;;;;;;5066548;28;25305;-53
2022/04/03 14:08:17;;;;;;;2.80;2.60;;;;;;;;;;5066601;28;24497;-52
2022/04/03 14:10:43;;;;;;;2.70;2.50;;;;;;;;;;5078221;28;24414;-53
2022/04/03 14:13:08;;;;;;;2.90;2.70;;;;;;;;;;5066559;28;24398;-50
2022/04/03 14:15:34;;;;;;;2.95;2.70;;;;;;;;;;5072864;28;24491;-53
2022/04/03 14:18:00;;;;;;;3.65;3.17;;;;;;;;;;5076852;28;24529;-50
2022/04/03 14:20:25;;;;;;;3.27;2.80;;;;;;;;;;5077733;28;24956;-51
2022/04/03 14:22:50;;;;;;;3.60;3.20;;;;;;;;;;5081203;28;24981;-50
2022/04/03 14:25:15;;;;;;;2.77;2.57;;;;;;;;;;5091138;28;24883;-53
2022/04/03 14:27:40;;;;;;;3.00;2.80;;;;;;;;;;5070806;28;24422;-52
2022/04/03 14:30:07;;;;;;;3.10;2.80;;;;;;;;;;5070592;28;24514;-52
2022/04/03 14:32:33;;;;;;;2.53;2.35;;;;;;;;;;5095827;28;24420;-52
2022/04/03 14:34:58;;;;;;;2.97;2.77;;;;;;;;;;5078224;28;24427;-51
2022/04/03 14:37:23;;;;;;;3.00;2.80;;;;;;;;;;5089941;28;24422;-51
2022/04/03 14:39:49;;;;;;;2.73;2.53;;;;;;;;;;5110475;28;24508;-51